Time;durP1;ratioP1;P1;durP2;ratioP2;P2;SDS_P1;SDS_P2;PMS_P1;PMS_P2;Temp;Humidity;BMP_temperature;BMP_pressure;BME280_temperature;BME280_humidity;BME280_pressure;Samples;Min_cycle;Max_cycle;Signal;HPM_P1;HPM_P2
2023/01/01 00:01:14;;;;;;;12.00;8.83;;;;;;;;;;5034810;28;20245;-78
2023/01/01 00:03:41;;;;;;;8.87;6.67;;;;;;;;;;5035465;28;20206;-78
2023/01/01 00:06:09;;;;;;;11.03;7.50;;;;;;;;;;5034177;28;20234;-78
2023/01/01 00:08:37;;;;;;;12.37;8.83;;;;;;;;;;5034501;28;20207;-78
2023/01/01 00:11:04;;;;;;;13.40;8.93;;;;;;;;;;5034742;28;20238;-78
2023/01/01 00:13:32;;;;;;;15.03;9.53;;;;;;;;;;5035087;28;20310;-78
2023/01/01 00:16:04;;;;;;;16.37;10.20;;;;;;;;;;5034594;28;20238;-78
2023/01/01 00:18:32;;;;;;;14.53;9.80;;;;;;;;;;5034527;28;20252;-79
2023/01/01 00:21:03;;;;;;;10.33;7.37;;;;;;;;;;5034811;28;20230;-79
2023/01/01 00:23:30;;;;;;;8.23;7.00;;;;;;;;;;5034726;28;20237;-79
2023/01/01 00:25:57;;;;;;;9.73;7.73;;;;;;;;;;5035176;28;20613;-79
2023/01/01 00:28:25;;;;;;;9.67;6.50;;;;;;;;;;5034527;28;20210;-79
2023/01/01 00:30:52;;;;;;;9.37;6.93;;;;;;;;;;5034766;28;20605;-79
2023/01/01 00:33:20;;;;;;;9.73;6.57;;;;;;;;;;5034908;28;20209;-79
2023/01/01 00:35:47;;;;;;;10.83;7.70;;;;;;;;;;5034691;28;20591;-78
2023/01/01 00:38:14;;;;;;;11.03;8.80;;;;;;;;;;5034803;28;20261;-78
2023/01/01 00:40:41;;;;;;;12.00;9.40;;;;;;;;;;5034673;28;20241;-78
2023/01/01 00:43:08;;;;;;;12.73;9.97;;;;;;;;;;5035147;28;20190;-78
2023/01/01 00:45:37;;;;;;;13.63;10.23;;;;;;;;;;5034213;28;20662;-78
2023/01/01 00:48:04;;;;;;;14.23;9.60;;;;;;;;;;5034817;28;20675;-78
2023/01/01 00:50:31;;;;;;;9.37;8.07;;;;;;;;;;5034499;28;20231;-79
2023/01/01 00:52:58;;;;;;;11.93;9.27;;;;;;;;;;5034788;28;20616;-78
2023/01/01 00:55:25;;;;;;;10.57;8.97;;;;;;;;;;5034187;28;20288;-78
2023/01/01 00:57:52;;;;;;;10.60;8.13;;;;;;;;;;5034621;28;20199;-78
2023/01/01 01:00:19;;;;;;;13.63;9.13;;;;;;;;;;5034243;28;20207;-79
2023/01/01 01:02:47;;;;;;;9.47;8.40;;;;;;;;;;5034686;28;20289;-78
2023/01/01 01:05:14;;;;;;;12.53;8.80;;;;;;;;;;5034565;28;20215;-78
2023/01/01 01:07:42;;;;;;;12.77;9.63;;;;;;;;;;5022707;28;20207;-78
2023/01/01 01:10:10;;;;;;;13.57;10.23;;;;;;;;;;5014158;28;20207;-78
2023/01/01 01:12:38;;;;;;;15.03;9.60;;;;;;;;;;5014340;28;20315;-78
2023/01/01 01:15:05;;;;;;;10.90;8.93;;;;;;;;;;5016123;28;20223;-78
2023/01/01 01:17:33;;;;;;;12.50;9.47;;;;;;;;;;5014738;28;20211;-78
2023/01/01 01:20:01;;;;;;;12.63;9.17;;;;;;;;;;5014242;28;20211;-78
2023/01/01 01:22:29;;;;;;;10.87;7.67;;;;;;;;;;5016101;28;20246;-78
2023/01/01 01:24:56;;;;;;;11.30;7.23;;;;;;;;;;5033506;28;20207;-78
2023/01/01 01:27:23;;;;;;;10.63;7.67;;;;;;;;;;5033594;28;20727;-78
2023/01/01 01:29:50;;;;;;;10.10;7.43;;;;;;;;;;5034231;28;20215;-79
2023/01/01 01:32:17;;;;;;;9.07;7.80;;;;;;;;;;5033585;28;20238;-78
2023/01/01 01:34:44;;;;;;;10.13;8.00;;;;;;;;;;5034057;28;20209;-78
2023/01/01 01:37:13;;;;;;;14.67;8.20;;;;;;;;;;5033564;28;20273;-78
2023/01/01 01:39:40;;;;;;;8.37;7.27;;;;;;;;;;5034038;28;20202;-78
2023/01/01 01:42:07;;;;;;;10.97;7.60;;;;;;;;;;5033216;28;20245;-78
2023/01/01 01:44:50;;;;;;;8.90;6.60;;;;;;;;;;5033763;28;20686;-78
2023/01/01 01:47:18;;;;;;;9.97;6.43;;;;;;;;;;5033584;28;20230;-78
2023/01/01 01:49:45;;;;;;;9.07;6.30;;;;;;;;;;5033968;28;20209;-78
2023/01/01 01:52:13;;;;;;;8.00;5.73;;;;;;;;;;5033463;28;20238;-78
2023/01/01 01:54:41;;;;;;;10.50;6.43;;;;;;;;;;5033888;28;20686;-78
2023/01/01 01:57:09;;;;;;;9.63;6.50;;;;;;;;;;5033261;28;20288;-78
2023/01/01 01:59:38;;;;;;;11.17;6.27;;;;;;;;;;5033440;28;20206;-78
2023/01/01 02:02:08;;;;;;;8.60;6.80;;;;;;;;;;5025878;28;20262;-77
2023/01/01 02:04:36;;;;;;;8.90;5.53;;;;;;;;;;5025672;28;20705;-78
2023/01/01 02:07:03;;;;;;;7.17;5.53;;;;;;;;;;5014172;28;20276;-78
2023/01/01 02:09:31;;;;;;;8.27;6.10;;;;;;;;;;5032077;28;20721;-78
2023/01/01 02:11:59;;;;;;;6.90;5.30;;;;;;;;;;5032660;28;20243;-78
2023/01/01 02:14:26;;;;;;;8.53;5.30;;;;;;;;;;5033123;28;20198;-77
2023/01/01 02:16:56;;;;;;;7.07;4.93;;;;;;;;;;5032910;28;20238;-78
2023/01/01 02:19:28;;;;;;;6.67;4.53;;;;;;;;;;5032953;28;20199;-78
2023/01/01 02:22:00;;;;;;;6.50;4.60;;;;;;;;;;5032578;28;20249;-79
2023/01/01 02:24:35;;;;;;;5.70;4.70;;;;;;;;;;5033122;28;20202;-78
2023/01/01 02:27:04;;;;;;;7.43;4.90;;;;;;;;;;5032626;28;20241;-78
2023/01/01 02:29:39;;;;;;;6.53;4.67;;;;;;;;;;5032670;28;20206;-78
2023/01/01 02:32:08;;;;;;;5.40;4.37;;;;;;;;;;5032429;28;20650;-78
2023/01/01 02:34:37;;;;;;;5.50;3.93;;;;;;;;;;5032564;28;20697;-78
2023/01/01 02:37:06;;;;;;;5.40;4.10;;;;;;;;;;5032174;28;20243;-78
2023/01/01 02:39:34;;;;;;;5.03;4.40;;;;;;;;;;5032384;28;20203;-78
2023/01/01 02:42:03;;;;;;;6.23;4.17;;;;;;;;;;5031954;28;20239;-78
2023/01/01 02:44:32;;;;;;;6.63;4.07;;;;;;;;;;5032665;28;20265;-79
2023/01/01 02:47:08;;;;;;;4.63;3.73;;;;;;;;;;5032297;28;20234;-79
2023/01/01 02:49:37;;;;;;;5.23;4.40;;;;;;;;;;5032531;28;20203;-78
2023/01/01 02:52:08;;;;;;;4.23;3.83;;;;;;;;;;5032121;28;20238;-78
2023/01/01 02:54:38;;;;;;;5.57;4.27;;;;;;;;;;5032510;28;20664;-78
2023/01/01 02:57:09;;;;;;;5.30;4.23;;;;;;;;;;5032098;28;20296;-78
2023/01/01 03:02:35;;;;;;;4.67;4.00;;;;;;;;;;5031911;28;20280;-78
2023/01/01 03:05:06;;;;;;;6.40;4.23;;;;;;;;;;5032331;28;20560;-78
2023/01/01 03:07:38;;;;;;;8.77;4.00;;;;;;;;;;5032207;28;20219;-78
2023/01/01 03:10:07;;;;;;;3.70;3.30;;;;;;;;;;5031450;28;20687;-79
2023/01/01 03:12:42;;;;;;;5.90;3.87;;;;;;;;;;5031442;28;20727;-78
2023/01/01 03:15:12;;;;;;;6.67;4.03;;;;;;;;;;5011807;28;20219;-78
2023/01/01 03:17:45;;;;;;;5.17;4.13;;;;;;;;;;5012233;28;20554;-78
2023/01/01 03:20:14;;;;;;;6.00;4.23;;;;;;;;;;5011653;28;20215;-78
2023/01/01 03:22:42;;;;;;;4.50;3.53;;;;;;;;;;5013086;28;20220;-78
2023/01/01 03:25:11;;;;;;;6.50;4.30;;;;;;;;;;5031292;28;20226;-78
2023/01/01 03:27:41;;;;;;;5.03;3.50;;;;;;;;;;5024252;28;20207;-77
2023/01/01 03:30:10;;;;;;;5.63;4.23;;;;;;;;;;5011446;28;20620;-78
2023/01/01 03:35:26;;;;;;;3.97;3.50;;;;;;;;;;5010831;28;20241;-78
2023/01/01 03:37:55;;;;;;;4.90;3.30;;;;;;;;;;5012053;28;20214;-78
2023/01/01 03:40:22;;;;;;;6.43;4.07;;;;;;;;;;5011717;28;20214;-78
2023/01/01 03:42:51;;;;;;;6.40;3.90;;;;;;;;;;5047213;23;20590;-81
2023/01/01 03:45:20;;;;;;;3.80;3.27;;;;;;;;;;5041929;28;20673;-81
2023/01/01 03:47:47;;;;;;;6.37;3.73;;;;;;;;;;5048461;28;20202;-81
2023/01/01 03:50:15;;;;;;;3.53;3.10;;;;;;;;;;5050653;28;20336;-79
2023/01/01 03:52:45;;;;;;;6.33;3.73;;;;;;;;;;5051559;28;20248;-80
2023/01/01 03:55:15;;;;;;;4.07;3.03;;;;;;;;;;5050420;28;20214;-79
2023/01/01 03:57:44;;;;;;;3.60;3.30;;;;;;;;;;5051148;28;20194;-79
2023/01/01 04:00:15;;;;;;;6.33;3.50;;;;;;;;;;5030547;28;20207;-79
2023/01/01 04:02:45;;;;;;;3.90;3.50;;;;;;;;;;5031323;28;20237;-79
2023/01/01 04:05:13;;;;;;;3.30;2.93;;;;;;;;;;5049590;28;20700;-79
2023/01/01 04:07:40;;;;;;;3.80;3.33;;;;;;;;;;5051054;28;20206;-79
2023/01/01 04:10:16;;;;;;;5.67;3.40;;;;;;;;;;5050575;28;20202;-80
2023/01/01 04:12:45;;;;;;;4.47;3.47;;;;;;;;;;5051200;28;20253;-79
2023/01/01 04:15:12;;;;;;;4.77;3.53;;;;;;;;;;5050048;28;20625;-79
2023/01/01 04:17:39;;;;;;;3.43;3.13;;;;;;;;;;5051108;28;20234;-79
2023/01/01 04:20:08;;;;;;;3.87;3.20;;;;;;;;;;5050304;28;20202;-79
2023/01/01 04:22:35;;;;;;;5.43;3.60;;;;;;;;;;5051033;28;20240;-79
2023/01/01 04:25:02;;;;;;;6.53;3.87;;;;;;;;;;5050613;28;20210;-79
2023/01/01 04:27:30;;;;;;;4.07;2.97;;;;;;;;;;5050482;28;20724;-79
2023/01/01 04:29:57;;;;;;;3.70;3.17;;;;;;;;;;5050936;28;20206;-79
2023/01/01 04:32:24;;;;;;;4.63;3.53;;;;;;;;;;5050136;28;20249;-79
2023/01/01 04:34:51;;;;;;;5.43;3.90;;;;;;;;;;5050743;28;20209;-79
2023/01/01 04:37:18;;;;;;;4.87;3.50;;;;;;;;;;5049846;28;20249;-78
2023/01/01 04:39:45;;;;;;;4.53;3.23;;;;;;;;;;5050291;28;20623;-79
2023/01/01 04:42:12;;;;;;;5.77;2.77;;;;;;;;;;5049865;28;20239;-79
2023/01/01 04:44:40;;;;;;;4.30;3.30;;;;;;;;;;5050651;28;20210;-79
2023/01/01 04:47:08;;;;;;;3.10;2.80;;;;;;;;;;5053377;28;20642;-79
2023/01/01 04:49:35;;;;;;;3.73;3.30;;;;;;;;;;5054170;28;20713;-79
2023/01/01 04:52:02;;;;;;;4.77;3.20;;;;;;;;;;5053794;28;20233;-79
2023/01/01 04:54:29;;;;;;;4.97;3.63;;;;;;;;;;5054265;28;20609;-79
2023/01/01 04:56:56;;;;;;;5.23;3.47;;;;;;;;;;5053623;28;20280;-79
2023/01/01 04:59:23;;;;;;;4.43;3.60;;;;;;;;;;5054071;28;20214;-79
2023/01/01 05:01:51;;;;;;;3.50;2.97;;;;;;;;;;5053782;28;20242;-79
2023/01/01 05:04:18;;;;;;;6.90;3.23;;;;;;;;;;5053759;28;20291;-79
2023/01/01 05:06:45;;;;;;;4.20;3.30;;;;;;;;;;5053739;28;20236;-79
2023/01/01 05:09:12;;;;;;;2.93;2.63;;;;;;;;;;5053818;28;20217;-79
2023/01/01 05:11:40;;;;;;;6.00;3.20;;;;;;;;;;5053690;28;20307;-79
2023/01/01 05:14:07;;;;;;;4.23;3.40;;;;;;;;;;5053708;28;20222;-79
2023/01/01 05:16:36;;;;;;;6.80;3.40;;;;;;;;;;5053111;28;20260;-79
2023/01/01 05:19:05;;;;;;;4.13;3.00;;;;;;;;;;5053719;28;20674;-79
2023/01/01 05:21:33;;;;;;;8.63;3.50;;;;;;;;;;5053546;28;20291;-79
2023/01/01 05:24:00;;;;;;;5.40;3.07;;;;;;;;;;5053754;28;20221;-79
2023/01/01 05:26:28;;;;;;;3.93;2.97;;;;;;;;;;5053230;28;20230;-79
2023/01/01 05:28:56;;;;;;;7.00;3.30;;;;;;;;;;5053602;28;20209;-79
2023/01/01 05:31:24;;;;;;;4.17;2.63;;;;;;;;;;5053133;28;20237;-79
2023/01/01 05:33:52;;;;;;;3.27;2.73;;;;;;;;;;5053398;28;20638;-79
2023/01/01 05:36:22;;;;;;;4.20;2.77;;;;;;;;;;5053142;28;20230;-79
2023/01/01 05:38:49;;;;;;;6.37;3.23;;;;;;;;;;5053589;28;20210;-79
2023/01/01 05:41:17;;;;;;;3.87;2.97;;;;;;;;;;5052975;28;20708;-79
2023/01/01 05:43:44;;;;;;;5.47;3.17;;;;;;;;;;5053175;28;20897;-79
2023/01/01 05:46:13;;;;;;;5.00;2.87;;;;;;;;;;5052920;28;20628;-79
2023/01/01 05:48:40;;;;;;;4.80;3.00;;;;;;;;;;5053260;28;20670;-79
2023/01/01 05:51:08;;;;;;;4.10;3.67;;;;;;;;;;5052966;28;20229;-79
2023/01/01 05:53:36;;;;;;;5.20;3.10;;;;;;;;;;5052917;28;20234;-79
2023/01/01 05:56:03;;;;;;;6.10;3.30;;;;;;;;;;5052774;28;20229;-79
2023/01/01 05:58:32;;;;;;;5.53;3.47;;;;;;;;;;5052498;28;20206;-79
2023/01/01 06:01:05;;;;;;;3.97;3.03;;;;;;;;;;5052859;28;20233;-79
2023/01/01 06:03:32;;;;;;;3.70;3.07;;;;;;;;;;5052872;28;20226;-79
2023/01/01 06:06:03;;;;;;;5.23;3.50;;;;;;;;;;5052652;28;20280;-79
2023/01/01 06:08:30;;;;;;;7.23;3.00;;;;;;;;;;5052836;28;20205;-79
2023/01/01 06:11:00;;;;;;;3.73;2.67;;;;;;;;;;5052431;28;20723;-79
2023/01/01 06:13:27;;;;;;;3.57;3.20;;;;;;;;;;5043601;28;20629;-79
2023/01/01 06:15:54;;;;;;;7.33;3.10;;;;;;;;;;5032705;28;20234;-79
2023/01/01 06:18:21;;;;;;;5.53;2.90;;;;;;;;;;5032490;28;20322;-79
2023/01/01 06:20:48;;;;;;;3.17;2.83;;;;;;;;;;5034979;28;20235;-79
2023/01/01 06:23:15;;;;;;;4.30;3.13;;;;;;;;;;5052383;28;20233;-79
2023/01/01 06:25:42;;;;;;;3.43;3.13;;;;;;;;;;5052411;28;20233;-79
2023/01/01 06:28:11;;;;;;;5.80;2.97;;;;;;;;;;5052460;28;20213;-79
2023/01/01 06:30:38;;;;;;;4.67;3.17;;;;;;;;;;5052028;28;20233;-79
2023/01/01 06:33:05;;;;;;;3.03;2.70;;;;;;;;;;5052286;28;20222;-79
2023/01/01 06:35:32;;;;;;;4.00;3.00;;;;;;;;;;5052038;28;20245;-79
2023/01/01 06:37:59;;;;;;;3.97;3.10;;;;;;;;;;5052413;28;20225;-79
2023/01/01 06:40:26;;;;;;;7.00;3.53;;;;;;;;;;5052002;28;20238;-79
2023/01/01 06:42:54;;;;;;;4.33;3.80;;;;;;;;;;5051973;28;20695;-79
2023/01/01 06:45:22;;;;;;;7.30;4.07;;;;;;;;;;5051516;28;20616;-79
2023/01/01 06:47:49;;;;;;;8.70;3.50;;;;;;;;;;5052009;28;20198;-79
2023/01/01 06:50:16;;;;;;;4.30;3.33;;;;;;;;;;5051614;28;20214;-79
2023/01/01 06:52:43;;;;;;;4.73;3.43;;;;;;;;;;5052004;28;20229;-79
2023/01/01 06:55:10;;;;;;;8.07;3.40;;;;;;;;;;5051371;28;20199;-79
2023/01/01 06:57:37;;;;;;;5.07;3.07;;;;;;;;;;5051911;28;20230;-79
2023/01/01 07:00:05;;;;;;;3.57;3.23;;;;;;;;;;5051320;28;20206;-80
2023/01/01 07:02:33;;;;;;;4.83;3.37;;;;;;;;;;5052061;28;20261;-79
2023/01/01 07:05:00;;;;;;;4.43;2.93;;;;;;;;;;5051500;28;20201;-79
2023/01/01 07:07:27;;;;;;;5.33;3.60;;;;;;;;;;5051162;28;20727;-78
2023/01/01 07:09:54;;;;;;;7.00;3.50;;;;;;;;;;5050700;28;20202;-78
2023/01/01 07:12:21;;;;;;;5.80;2.97;;;;;;;;;;5051140;28;20287;-78
2023/01/01 07:14:48;;;;;;;5.60;2.80;;;;;;;;;;5051457;28;20211;-77
2023/01/01 07:17:15;;;;;;;6.00;2.90;;;;;;;;;;5051048;28;20245;-77
2023/01/01 07:19:44;;;;;;;5.20;2.87;;;;;;;;;;5051417;28;20685;-77
2023/01/01 07:22:11;;;;;;;4.90;2.90;;;;;;;;;;5050767;28;20238;-77
2023/01/01 07:24:38;;;;;;;3.57;3.10;;;;;;;;;;5051508;28;20312;-77
2023/01/01 07:27:06;;;;;;;8.57;2.97;;;;;;;;;;5051163;28;20299;-77
2023/01/01 07:29:33;;;;;;;4.20;2.80;;;;;;;;;;5051379;28;20209;-77
2023/01/01 07:32:01;;;;;;;5.37;2.70;;;;;;;;;;5050815;28;20230;-77
2023/01/01 07:34:28;;;;;;;3.07;2.67;;;;;;;;;;5051388;28;20716;-77
2023/01/01 07:36:56;;;;;;;3.53;2.60;;;;;;;;;;5051143;28;20237;-78
2023/01/01 07:39:23;;;;;;;9.30;3.07;;;;;;;;;;5051113;28;20700;-77
2023/01/01 07:41:50;;;;;;;4.70;2.70;;;;;;;;;;5050470;28;20229;-77
2023/01/01 07:44:17;;;;;;;5.13;2.93;;;;;;;;;;5050967;28;20257;-77
2023/01/01 07:46:44;;;;;;;4.90;3.07;;;;;;;;;;5051050;28;20233;-77
2023/01/01 07:49:12;;;;;;;6.93;3.17;;;;;;;;;;5050833;28;20202;-77
2023/01/01 07:51:39;;;;;;;4.77;3.03;;;;;;;;;;5050704;28;20241;-77
2023/01/01 07:54:07;;;;;;;6.07;3.17;;;;;;;;;;5050845;28;20230;-77
2023/01/01 07:56:34;;;;;;;3.33;2.50;;;;;;;;;;5050740;28;20953;-77
2023/01/01 07:59:01;;;;;;;3.53;2.67;;;;;;;;;;5051066;28;20209;-77
2023/01/01 08:01:28;;;;;;;7.00;3.03;;;;;;;;;;5050691;28;20233;-78
2023/01/01 08:03:55;;;;;;;5.10;3.20;;;;;;;;;;5051065;28;20226;-77
2023/01/01 08:06:22;;;;;;;8.23;3.30;;;;;;;;;;5050696;28;20233;-78
2023/01/01 08:08:49;;;;;;;4.70;3.33;;;;;;;;;;5050871;28;20206;-77
2023/01/01 08:11:17;;;;;;;7.30;3.40;;;;;;;;;;5050277;28;20225;-78
2023/01/01 08:13:44;;;;;;;4.00;2.30;;;;;;;;;;5051127;28;20275;-77
2023/01/01 08:16:12;;;;;;;5.60;3.17;;;;;;;;;;5050758;28;20240;-78
2023/01/01 08:18:39;;;;;;;5.33;2.40;;;;;;;;;;5051019;28;20221;-77
2023/01/01 08:21:06;;;;;;;2.10;1.90;;;;;;;;;;5052678;28;20721;-77
2023/01/01 08:23:33;;;;;;;3.97;2.27;;;;;;;;;;5054504;28;20230;-78
2023/01/01 08:26:01;;;;;;;4.63;2.10;;;;;;;;;;5054287;28;20237;-78
2023/01/01 08:28:30;;;;;;;2.90;2.27;;;;;;;;;;5054462;28;20209;-78
2023/01/01 08:30:58;;;;;;;5.53;2.70;;;;;;;;;;5054490;28;20705;-78
2023/01/01 08:33:25;;;;;;;3.23;2.20;;;;;;;;;;5054629;28;20226;-77
2023/01/01 08:35:52;;;;;;;4.07;2.53;;;;;;;;;;5054143;28;20230;-78
2023/01/01 08:38:19;;;;;;;3.73;2.63;;;;;;;;;;5054050;28;20222;-78
2023/01/01 08:40:46;;;;;;;3.40;2.70;;;;;;;;;;5054266;28;20636;-77
2023/01/01 08:43:13;;;;;;;5.70;2.90;;;;;;;;;;5054312;28;20590;-77
2023/01/01 08:45:41;;;;;;;4.23;2.73;;;;;;;;;;5053879;28;20291;-78
2023/01/01 08:48:08;;;;;;;3.90;2.50;;;;;;;;;;5054165;28;20202;-78
2023/01/01 08:50:35;;;;;;;4.13;2.60;;;;;;;;;;5054252;28;20237;-77
2023/01/01 08:53:03;;;;;;;4.20;2.47;;;;;;;;;;5054375;28;20276;-77
2023/01/01 08:55:30;;;;;;;3.73;3.00;;;;;;;;;;5053068;28;20637;-78
2023/01/01 08:57:57;;;;;;;4.67;2.50;;;;;;;;;;5053975;28;20230;-77
2023/01/01 09:00:24;;;;;;;2.87;2.27;;;;;;;;;;5053558;28;20237;-78
2023/01/01 09:02:52;;;;;;;5.87;2.70;;;;;;;;;;5053883;28;20229;-77
2023/01/01 09:05:20;;;;;;;2.83;2.57;;;;;;;;;;5053421;28;20305;-78
2023/01/01 09:07:47;;;;;;;4.20;2.33;;;;;;;;;;5053873;28;20213;-78
2023/01/01 09:10:14;;;;;;;5.40;2.80;;;;;;;;;;5053425;28;20214;-78
2023/01/01 09:12:41;;;;;;;3.57;2.30;;;;;;;;;;5052168;28;20624;-77
2023/01/01 09:15:15;;;;;;;4.17;2.47;;;;;;;;;;5044679;28;20202;-78
2023/01/01 09:17:42;;;;;;;7.97;3.20;;;;;;;;;;5049014;28;20356;-80
2023/01/01 09:20:11;;;;;;;6.57;3.77;;;;;;;;;;5053341;28;20210;-80
2023/01/01 09:22:38;;;;;;;2.53;2.07;;;;;;;;;;5053796;28;20252;-80
2023/01/01 09:25:05;;;;;;;5.00;2.93;;;;;;;;;;5053808;28;20259;-80
2023/01/01 09:27:32;;;;;;;5.40;2.47;;;;;;;;;;5054112;28;20210;-80
2023/01/01 09:29:59;;;;;;;2.73;2.20;;;;;;;;;;5054268;28;20600;-83
2023/01/01 09:32:26;;;;;;;4.37;2.30;;;;;;;;;;5052652;28;20777;-75
2023/01/01 09:34:53;;;;;;;6.20;2.57;;;;;;;;;;5052021;28;20202;-77
2023/01/01 09:37:22;;;;;;;4.50;3.00;;;;;;;;;;5049744;28;20312;-77
2023/01/01 09:39:49;;;;;;;6.50;2.30;;;;;;;;;;5053242;28;20213;-77
2023/01/01 09:42:23;;;;;;;5.17;2.80;;;;;;;;;;5039618;28;20727;-77
2023/01/01 09:45:01;;;;;;;8.30;3.70;;;;;;;;;;5033875;28;20211;-75
2023/01/01 09:47:30;;;;;;;5.63;3.27;;;;;;;;;;5047759;28;20221;-75
2023/01/01 09:50:00;;;;;;;4.17;2.27;;;;;;;;;;5053088;28;20209;-76
2023/01/01 09:52:35;;;;;;;6.43;2.60;;;;;;;;;;5049956;28;20248;-76
2023/01/01 09:55:03;;;;;;;3.93;2.67;;;;;;;;;;5033530;28;20222;-75
2023/01/01 09:57:32;;;;;;;3.30;2.37;;;;;;;;;;5044904;28;20311;-77
2023/01/01 09:59:59;;;;;;;7.47;2.77;;;;;;;;;;5033075;28;20693;-79
2023/01/01 10:02:36;;;;;;;4.37;2.60;;;;;;;;;;5032392;28;20242;-78
2023/01/01 10:05:06;;;;;;;3.83;2.37;;;;;;;;;;5038752;28;20205;-80
2023/01/01 10:07:38;;;;;;;5.97;3.13;;;;;;;;;;5052767;28;20224;-79
2023/01/01 10:10:13;;;;;;;5.33;2.23;;;;;;;;;;5052450;28;20209;-79
2023/01/01 10:12:43;;;;;;;3.33;2.50;;;;;;;;;;5052885;28;20283;-78
2023/01/01 10:15:13;;;;;;;1.63;1.53;;;;;;;;;;5048743;28;20199;-78
2023/01/01 10:17:42;;;;;;;3.90;2.57;;;;;;;;;;5052287;28;20590;-79
2023/01/01 10:20:16;;;;;;;4.40;2.37;;;;;;;;;;5052974;28;20225;-79
2023/01/01 10:22:45;;;;;;;3.60;2.67;;;;;;;;;;5066083;28;20226;-78
2023/01/01 10:25:18;;;;;;;3.63;2.10;;;;;;;;;;5063762;28;20214;-79
2023/01/01 10:27:46;;;;;;;6.43;2.50;;;;;;;;;;5052276;28;20244;-78
2023/01/01 10:30:14;;;;;;;7.40;2.57;;;;;;;;;;5051989;28;20221;-79
2023/01/01 10:32:43;;;;;;;2.10;1.97;;;;;;;;;;5052606;28;20222;-79
2023/01/01 10:35:13;;;;;;;5.00;2.27;;;;;;;;;;5052040;28;20655;-80
2023/01/01 10:37:40;;;;;;;8.00;2.10;;;;;;;;;;5052307;28;20234;-79
2023/01/01 10:40:15;;;;;;;4.13;2.60;;;;;;;;;;5052132;28;20593;-80
2023/01/01 10:42:42;;;;;;;5.17;2.43;;;;;;;;;;5041903;28;20713;-79
2023/01/01 10:45:12;;;;;;;6.87;2.30;;;;;;;;;;5048949;28;20202;-79
2023/01/01 10:47:40;;;;;;;3.93;2.17;;;;;;;;;;5052341;28;20526;-79
2023/01/01 10:50:07;;;;;;;4.03;2.20;;;;;;;;;;5051905;28;20210;-79
2023/01/01 10:52:35;;;;;;;4.30;2.47;;;;;;;;;;5051991;28;20618;-81
2023/01/01 10:55:03;;;;;;;3.20;2.10;;;;;;;;;;5051581;28;20218;-82
2023/01/01 10:57:37;;;;;;;5.53;2.20;;;;;;;;;;5051653;28;20213;-80
2023/01/01 11:00:11;;;;;;;5.00;2.47;;;;;;;;;;5051460;28;20285;-80
2023/01/01 11:02:38;;;;;;;4.70;2.33;;;;;;;;;;5052238;28;20226;-80
2023/01/01 11:05:16;;;;;;;6.60;2.70;;;;;;;;;;5051406;28;20213;-81
2023/01/01 11:07:44;;;;;;;3.13;2.07;;;;;;;;;;5051638;28;20259;-81
2023/01/01 11:10:17;;;;;;;4.37;2.30;;;;;;;;;;5051278;28;20202;-80
2023/01/01 11:12:46;;;;;;;5.33;3.20;;;;;;;;;;5051734;28;20294;-80
2023/01/01 11:15:23;;;;;;;3.13;2.10;;;;;;;;;;5051411;28;20221;-81
2023/01/01 11:17:51;;;;;;;3.63;2.30;;;;;;;;;;5051180;28;20669;-81
2023/01/01 11:20:19;;;;;;;4.43;2.30;;;;;;;;;;5048597;28;20198;-81
2023/01/01 11:22:47;;;;;;;7.40;2.40;;;;;;;;;;5031904;28;20317;-81
2023/01/01 11:25:19;;;;;;;5.53;2.73;;;;;;;;;;5031402;28;20238;-81
2023/01/01 11:27:48;;;;;;;5.57;2.40;;;;;;;;;;5049581;28;20198;-77
2023/01/01 11:30:23;;;;;;;3.20;2.20;;;;;;;;;;5047071;28;20201;-78
2023/01/01 11:32:52;;;;;;;7.03;2.73;;;;;;;;;;5031601;28;20226;-78
2023/01/01 11:35:22;;;;;;;4.87;2.50;;;;;;;;;;5031225;28;20230;-78
2023/01/01 11:37:49;;;;;;;3.83;2.50;;;;;;;;;;5046710;28;20241;-78
2023/01/01 11:40:17;;;;;;;4.20;2.73;;;;;;;;;;5047110;28;20205;-76
2023/01/01 11:42:47;;;;;;;5.27;2.37;;;;;;;;;;5052135;28;20649;-77
2023/01/01 11:45:19;;;;;;;5.87;2.67;;;;;;;;;;5039901;28;20234;-77
2023/01/01 11:47:51;;;;;;;3.53;2.90;;;;;;;;;;5031593;28;20345;-78
2023/01/01 11:50:20;;;;;;;3.37;1.97;;;;;;;;;;5032560;28;20210;-80
2023/01/01 11:52:48;;;;;;;7.13;2.67;;;;;;;;;;5032794;28;20230;-80
2023/01/01 11:55:21;;;;;;;5.03;2.10;;;;;;;;;;5032223;28;20661;-80
2023/01/01 11:57:51;;;;;;;3.53;2.27;;;;;;;;;;5035749;28;20202;-81
2023/01/01 12:00:20;;;;;;;9.97;2.77;;;;;;;;;;5042198;28;20206;-81
2023/01/01 12:02:49;;;;;;;6.90;3.00;;;;;;;;;;5055207;28;20226;-80
2023/01/01 12:05:18;;;;;;;7.03;3.23;;;;;;;;;;5054933;28;20213;-81
2023/01/01 12:07:46;;;;;;;7.50;2.67;;;;;;;;;;5055145;28;20247;-80
2023/01/01 12:10:18;;;;;;;5.90;2.37;;;;;;;;;;5054303;28;20213;-82
2023/01/01 12:12:49;;;;;;;6.27;2.17;;;;;;;;;;5043918;28;20232;-80
2023/01/01 12:15:17;;;;;;;3.27;2.10;;;;;;;;;;5045185;28;20582;-80
2023/01/01 12:17:47;;;;;;;4.87;2.13;;;;;;;;;;5046625;28;20199;-80
2023/01/01 12:20:20;;;;;;;5.67;2.63;;;;;;;;;;5033958;28;20226;-79
2023/01/01 12:22:47;;;;;;;7.23;2.40;;;;;;;;;;5034064;28;20250;-80
2023/01/01 12:25:15;;;;;;;3.03;2.43;;;;;;;;;;5033736;28;20264;-80
2023/01/01 12:27:46;;;;;;;3.53;2.60;;;;;;;;;;5042226;28;20209;-80
2023/01/01 12:30:20;;;;;;;4.80;2.50;;;;;;;;;;5043523;28;20202;-81
2023/01/01 12:33:05;;;;;;;5.97;2.50;;;;;;;;;;5033948;28;20234;-80
2023/01/01 12:35:38;;;;;;;6.13;2.83;;;;;;;;;;5020131;28;20245;-79
2023/01/01 12:38:13;;;;;;;4.27;2.70;;;;;;;;;;5036601;28;20225;-80
2023/01/01 12:40:46;;;;;;;3.53;2.20;;;;;;;;;;5052815;28;20244;-80
2023/01/01 12:43:20;;;;;;;7.50;2.87;;;;;;;;;;5036708;28;20241;-78
2023/01/01 12:46:04;;;;;;;5.17;1.90;;;;;;;;;;5040026;28;20241;-79
2023/01/01 12:48:39;;;;;;;4.80;2.00;;;;;;;;;;5036552;28;20202;-80
2023/01/01 12:51:15;;;;;;;5.37;2.57;;;;;;;;;;5045256;28;20225;-80
2023/01/01 12:53:46;;;;;;;5.00;2.50;;;;;;;;;;5037034;28;20719;-80
2023/01/01 12:56:16;;;;;;;4.17;2.37;;;;;;;;;;5038968;28;20240;-80
2023/01/01 12:58:44;;;;;;;5.90;2.83;;;;;;;;;;5054421;28;20252;-79
2023/01/01 13:01:13;;;;;;;5.07;2.70;;;;;;;;;;5068975;28;20232;-79
2023/01/01 13:03:46;;;;;;;6.67;3.03;;;;;;;;;;5053195;28;20215;-79
2023/01/01 13:06:16;;;;;;;3.80;2.17;;;;;;;;;;5070947;28;20240;-79
2023/01/01 13:08:45;;;;;;;6.67;3.07;;;;;;;;;;5073680;28;20681;-79
2023/01/01 13:11:13;;;;;;;4.83;2.40;;;;;;;;;;5070287;28;20238;-79
2023/01/01 13:13:41;;;;;;;4.97;2.60;;;;;;;;;;5054019;28;20222;-79
2023/01/01 13:16:12;;;;;;;4.50;2.23;;;;;;;;;;5061170;28;20229;-79
2023/01/01 13:18:39;;;;;;;6.57;4.03;;;;;;;;;;5073329;28;20221;-80
2023/01/01 13:21:07;;;;;;;6.33;2.80;;;;;;;;;;5060158;28;20627;-80
2023/01/01 13:23:46;;;;;;;6.47;3.53;;;;;;;;;;5034599;28;20714;-80
2023/01/01 13:26:33;;;;;;;12.67;3.60;;;;;;;;;;5032919;28;20245;-80
2023/01/01 13:29:18;;;;;;;8.20;2.97;;;;;;;;;;5033234;28;20202;-80
2023/01/01 13:32:00;;;;;;;7.20;3.30;;;;;;;;;;5032918;28;20245;-80
2023/01/01 13:34:35;;;;;;;8.23;2.93;;;;;;;;;;5053100;28;20209;-80
2023/01/01 13:37:29;;;;;;;9.70;4.57;;;;;;;;;;5052666;28;20779;-80
2023/01/01 13:39:58;;;;;;;6.73;4.27;;;;;;;;;;5005703;28;20225;-80
2023/01/01 13:42:41;;;;;;;10.73;5.03;;;;;;;;;;5052343;28;20237;-80
2023/01/01 13:45:13;;;;;;;8.73;4.80;;;;;;;;;;5052674;28;20712;-80
2023/01/01 13:47:46;;;;;;;9.20;4.10;;;;;;;;;;5053322;28;20210;-79
2023/01/01 13:50:16;;;;;;;6.10;2.93;;;;;;;;;;5052365;28;20602;-79
2023/01/01 13:52:51;;;;;;;7.03;2.70;;;;;;;;;;5052921;28;20230;-79
2023/01/01 13:55:33;;;;;;;8.43;2.90;;;;;;;;;;5052313;28;20209;-80
2023/01/01 13:58:21;;;;;;;5.70;3.03;;;;;;;;;;5052593;28;20214;-80
2023/01/01 14:01:02;;;;;;;5.07;3.13;;;;;;;;;;5052401;28;20305;-79
2023/01/01 14:03:31;;;;;;;10.00;3.93;;;;;;;;;;5052379;28;20225;-79
2023/01/01 14:06:00;;;;;;;7.60;4.67;;;;;;;;;;5052453;28;20230;-79
2023/01/01 14:08:28;;;;;;;12.03;3.73;;;;;;;;;;5061235;28;20209;-79
2023/01/01 14:10:55;;;;;;;8.53;3.37;;;;;;;;;;5071443;28;20257;-80
2023/01/01 14:13:26;;;;;;;9.53;3.30;;;;;;;;;;5072060;28;20221;-79
2023/01/01 14:15:54;;;;;;;7.53;2.70;;;;;;;;;;5072179;28;20233;-79
2023/01/01 14:18:25;;;;;;;5.47;3.00;;;;;;;;;;5071334;28;20208;-79
2023/01/01 14:20:54;;;;;;;4.97;3.03;;;;;;;;;;5071785;28;20265;-79
2023/01/01 14:23:24;;;;;;;4.37;2.57;;;;;;;;;;5072097;28;20233;-80
2023/01/01 14:25:51;;;;;;;5.40;2.70;;;;;;;;;;5060685;28;20234;-79
2023/01/01 14:28:20;;;;;;;5.47;2.70;;;;;;;;;;5052021;28;20202;-80
2023/01/01 14:30:47;;;;;;;7.90;2.83;;;;;;;;;;5051719;28;20272;-80
2023/01/01 14:33:23;;;;;;;6.63;3.13;;;;;;;;;;5051852;28;20240;-80
2023/01/01 14:35:53;;;;;;;7.07;2.87;;;;;;;;;;5051608;28;20237;-79
2023/01/01 14:38:25;;;;;;;6.97;2.83;;;;;;;;;;5051638;28;20264;-79
2023/01/01 14:41:00;;;;;;;6.90;3.23;;;;;;;;;;5051429;28;20668;-80
2023/01/01 14:43:27;;;;;;;5.63;2.50;;;;;;;;;;5051938;28;20241;-79
2023/01/01 14:45:54;;;;;;;7.07;3.53;;;;;;;;;;5051503;28;20299;-79
2023/01/01 14:48:22;;;;;;;9.83;3.30;;;;;;;;;;5051437;28;20654;-81
2023/01/01 14:50:51;;;;;;;5.63;3.30;;;;;;;;;;5047559;28;20234;-79
2023/01/01 14:53:20;;;;;;;7.37;3.27;;;;;;;;;;5031554;28;20227;-79
2023/01/01 14:55:48;;;;;;;6.40;3.57;;;;;;;;;;5031433;28;20280;-79
2023/01/01 14:58:17;;;;;;;6.67;3.13;;;;;;;;;;5031457;28;20206;-79